Time;durP1;ratioP1;P1;durP2;ratioP2;P2;SDS_P1;SDS_P2;PMS_P1;PMS_P2;Temp;Humidity;BMP_temperature;BMP_pressure;BME280_temperature;BME280_humidity;BME280_pressure;Samples;Min_cycle;Max_cycle;Signal;HPM_P1;HPM_P2
2023/01/16 08:21:13;;;;;;;2.45;0.80;;;;;;;;;;12717708;23;1299829;-83
2023/01/16 08:26:59;;;;;;;3.42;0.88;;;;;;;;;;12737315;23;20087;-85
2023/01/16 08:32:00;;;;;;;2.55;0.90;;;;;;;;;;12727548;23;20017;-82
2023/01/16 08:37:03;;;;;;;3.33;0.90;;;;;;;;;;12723506;23;20028;-82
2023/01/16 08:52:45;;;;;;;4.50;1.02;;;;;;;;;;12772420;23;20045;-81
2023/01/16 08:57:46;;;;;;;3.45;1.65;;;;;;;;;;12746743;23;20461;-81
2023/01/16 09:02:47;;;;;;;4.57;1.00;;;;;;;;;;12736653;23;20012;-81
2023/01/16 09:07:48;;;;;;;3.03;1.20;;;;;;;;;;12738132;23;20009;-81
2023/01/16 09:18:09;;;;;;;4.93;1.00;;;;;;;;;;12754871;23;20104;-81
2023/01/16 09:23:10;;;;;;;4.07;0.70;;;;;;;;;;12755958;23;20012;-81
2023/01/16 09:28:11;;;;;;;3.03;1.00;;;;;;;;;;12731117;23;20029;-81
2023/01/16 09:33:12;;;;;;;4.15;1.65;;;;;;;;;;12730952;23;20088;-81
2023/01/16 09:38:13;;;;;;;2.25;0.90;;;;;;;;;;12736048;23;20009;-82
2023/01/16 09:43:35;;;;;;;2.00;0.60;;;;;;;;;;12733102;23;20006;-82
2023/01/16 09:48:39;;;;;;;4.32;0.70;;;;;;;;;;12731556;23;20006;-81
2023/01/16 09:59:24;;;;;;;1.92;0.70;;;;;;;;;;12777054;23;20009;-82
2023/01/16 10:04:25;;;;;;;2.75;0.75;;;;;;;;;;12729144;23;20041;-82
2023/01/16 10:10:02;;;;;;;1.10;0.57;;;;;;;;;;12733753;23;20069;-82
2023/01/16 10:15:30;;;;;;;1.35;0.60;;;;;;;;;;12551069;23;20005;-82
2023/01/16 10:20:50;;;;;;;2.53;0.65;;;;;;;;;;12725043;23;20009;-82
2023/01/16 10:25:57;;;;;;;2.08;0.90;;;;;;;;;;12748561;23;20012;-82
2023/01/16 10:31:21;;;;;;;2.30;0.70;;;;;;;;;;12734240;23;20013;-80
2023/01/16 10:36:25;;;;;;;2.25;0.70;;;;;;;;;;12730690;23;20009;-80
2023/01/16 10:52:16;;;;;;;2.28;0.57;;;;;;;;;;12762834;23;20013;-82
2023/01/16 10:57:37;;;;;;;4.05;0.60;;;;;;;;;;12735658;23;20006;-86
2023/01/16 11:02:41;;;;;;;1.38;0.68;;;;;;;;;;12771817;23;19994;-85
2023/01/16 11:07:43;;;;;;;2.00;0.50;;;;;;;;;;12759182;23;20089;-84
2023/01/16 11:18:59;;;;;;;1.73;0.80;;;;;;;;;;12755255;23;20017;-85
2023/01/16 11:24:22;;;;;;;1.75;0.63;;;;;;;;;;12737007;23;20068;-86
2023/01/16 11:29:26;;;;;;;2.08;0.60;;;;;;;;;;12754852;23;19998;-83
2023/01/16 11:34:29;;;;;;;1.20;0.60;;;;;;;;;;12725769;23;20085;-83
2023/01/16 11:39:39;;;;;;;2.03;0.60;;;;;;;;;;12731803;23;20006;-83
2023/01/16 11:50:18;;;;;;;2.30;0.60;;;;;;;;;;12756431;23;20013;-82
2023/01/16 11:55:29;;;;;;;0.98;0.47;;;;;;;;;;12732812;23;20033;-83
2023/01/16 12:00:30;;;;;;;0.82;0.50;;;;;;;;;;12757422;23;20009;-83
2023/01/16 12:05:55;;;;;;;5.70;0.60;;;;;;;;;;12727239;23;20006;-82
2023/01/16 12:11:11;;;;;;;3.75;1.33;;;;;;;;;;12731121;23;20025;-82
2023/01/16 12:16:51;;;;;;;1.20;0.45;;;;;;;;;;12737216;23;20012;-84
2023/01/16 12:22:09;;;;;;;2.67;0.70;;;;;;;;;;12768440;23;19993;-85
2023/01/16 12:27:29;;;;;;;1.63;0.60;;;;;;;;;;12737200;23;20001;-84
2023/01/16 12:32:52;;;;;;;1.30;0.50;;;;;;;;;;12738240;23;20005;-84
2023/01/16 12:38:09;;;;;;;1.67;0.63;;;;;;;;;;12730618;23;19999;-84
2023/01/16 12:43:23;;;;;;;1.95;0.70;;;;;;;;;;12769490;23;20026;-83
2023/01/16 12:48:43;;;;;;;1.38;0.40;;;;;;;;;;12773490;23;20012;-84
2023/01/16 12:53:44;;;;;;;1.20;0.50;;;;;;;;;;12707791;23;20012;-82
2023/01/16 12:58:50;;;;;;;1.13;0.47;;;;;;;;;;12710283;23;20021;-83
2023/01/16 13:03:55;;;;;;;2.33;0.50;;;;;;;;;;12709163;23;20038;-83
2023/01/16 13:09:05;;;;;;;1.75;0.88;;;;;;;;;;12707156;23;20077;-83
2023/01/16 13:14:10;;;;;;;1.55;0.80;;;;;;;;;;12703755;23;20082;-83
2023/01/16 13:19:14;;;;;;;2.83;1.10;;;;;;;;;;12699504;23;20091;-84
2023/01/16 13:24:17;;;;;;;1.90;0.90;;;;;;;;;;12712705;23;20029;-82
2023/01/16 13:29:25;;;;;;;1.38;0.63;;;;;;;;;;12705745;23;20006;-82
2023/01/16 13:34:30;;;;;;;2.70;1.10;;;;;;;;;;12710023;23;20386;-82
2023/01/16 13:39:37;;;;;;;1.50;0.80;;;;;;;;;;12708521;23;20045;-84
2023/01/16 13:50:00;;;;;;;;;;;;;;;;;;12722700;23;20013;-84
2023/01/16 13:55:06;;;;;;;1.50;0.70;;;;;;;;;;12724260;23;19905;-84
2023/01/16 14:00:12;;;;;;;2.42;0.80;;;;;;;;;;12697799;23;20085;-83
2023/01/16 14:05:21;;;;;;;2.45;0.70;;;;;;;;;;12699080;23;20025;-84
2023/01/16 14:10:25;;;;;;;1.70;0.82;;;;;;;;;;12697319;23;20002;-85
2023/01/16 14:21:04;;;;;;;0.77;0.50;;;;;;;;;;12706856;23;20101;-83
2023/01/16 14:26:06;;;;;;;0.82;0.50;;;;;;;;;;12688568;23;20427;-84
2023/01/16 14:31:22;;;;;;;0.98;0.63;;;;;;;;;;12687236;23;20037;-86
2023/01/16 14:36:24;;;;;;;2.15;0.90;;;;;;;;;;12659737;23;20014;-84
2023/01/16 14:57:31;;;;;;;1.00;0.60;;;;;;;;;;12695163;23;20033;-84
2023/01/16 15:02:41;;;;;;;0.88;0.50;;;;;;;;;;12711774;23;20012;-85
2023/01/16 15:07:44;;;;;;;0.90;0.45;;;;;;;;;;12694293;23;20002;-84
2023/01/16 15:12:45;;;;;;;1.55;0.60;;;;;;;;;;12692510;23;20070;-85
2023/01/16 15:23:26;;;;;;;1.05;0.47;;;;;;;;;;12698601;23;19924;-86
2023/01/16 15:28:36;;;;;;;1.05;0.50;;;;;;;;;;12695978;23;20006;-84
2023/01/16 15:33:48;;;;;;;1.02;0.60;;;;;;;;;;12692834;23;20006;-84
2023/01/16 15:38:56;;;;;;;2.08;0.63;;;;;;;;;;12702347;23;20014;-85
2023/01/16 15:49:17;;;;;;;1.98;0.68;;;;;;;;;;12698598;23;20010;-84
2023/01/16 15:54:19;;;;;;;1.77;0.60;;;;;;;;;;12696213;23;20025;-84
2023/01/16 15:59:21;;;;;;;;;;;;;;;;;;12695543;23;20058;-84
2023/01/16 16:04:23;;;;;;;2.58;1.52;;;;;;;;;;12678413;23;19905;-84
2023/01/16 16:09:26;;;;;;;1.77;0.90;;;;;;;;;;12729623;23;20017;-84
2023/01/16 16:19:56;;;;;;;2.95;1.70;;;;;;;;;;12704350;23;20123;-83
2023/01/16 16:24:57;;;;;;;1.95;1.40;;;;;;;;;;12699187;23;20018;-82
2023/01/16 16:29:58;;;;;;;2.33;1.30;;;;;;;;;;12690950;23;20013;-83
2023/01/16 16:34:59;;;;;;;2.63;1.45;;;;;;;;;;12690873;23;20025;-83
2023/01/16 16:40:03;;;;;;;5.60;2.80;;;;;;;;;;12693711;23;20091;-84
2023/01/16 16:45:07;;;;;;;3.42;1.77;;;;;;;;;;12693918;23;20013;-85
2023/01/16 16:50:20;;;;;;;2.22;1.30;;;;;;;;;;12691988;23;20013;-84
2023/01/16 16:55:27;;;;;;;4.03;1.50;;;;;;;;;;12692020;23;20009;-84
2023/01/16 17:00:29;;;;;;;1.95;0.93;;;;;;;;;;12691047;23;20013;-84
2023/01/16 17:05:31;;;;;;;2.67;1.80;;;;;;;;;;12686653;23;20057;-83
2023/01/16 17:10:32;;;;;;;2.03;1.02;;;;;;;;;;12685508;23;20002;-84
2023/01/16 17:15:33;;;;;;;2.95;1.00;;;;;;;;;;12689281;23;20073;-84
2023/01/16 17:20:47;;;;;;;1.40;0.80;;;;;;;;;;12699715;23;20009;-85
2023/01/16 17:31:42;;;;;;;;;;;;;;;;;;12735100;23;20006;-84
2023/01/16 18:00:07;;;;;;;6.10;4.00;;;;;;;;;;12454719;23;20074;-83
2023/01/16 18:27:29;;;;;;;;;;;;;;;;;;12696190;23;20002;-84
2023/01/16 18:32:38;;;;;;;1.95;1.35;;;;;;;;;;12692330;23;19911;-84
2023/01/16 19:06:18;;;;;;;1.50;1.00;;;;;;;;;;12448312;23;20016;-85
2023/01/16 20:14:52;;;;;;;3.47;2.63;;;;;;;;;;12395748;24;20464;-83
2023/01/16 20:19:55;;;;;;;4.97;3.00;;;;;;;;;;12394575;24;20013;-84
